createdAt,value
2018-07-25T00:02:05.547Z,100305.97
2018-07-25T00:04:33.636Z,100303.52
2018-07-25T00:07:01.711Z,100307.61
2018-07-25T00:09:29.785Z,100305.14
2018-07-25T00:11:57.976Z,100305.41
2018-07-25T00:14:26.051Z,100311.97
2018-07-25T00:16:54.125Z,100310.07
2018-07-25T00:19:22.200Z,100306.52
2018-07-25T00:21:50.332Z,100310.05
2018-07-25T00:24:18.547Z,100309.27
2018-07-25T00:26:46.653Z,100308.16
2018-07-25T00:29:14.730Z,100306.78
2018-07-25T00:31:42.808Z,100305.68
2018-07-25T00:34:10.877Z,100311.13
2018-07-25T00:36:39.110Z,100305.64
2018-07-25T00:39:07.886Z,100311.66
2018-07-25T00:41:35.997Z,100307.84
2018-07-25T00:44:04.143Z,100306.77
2018-07-25T00:46:32.215Z,100309.77
2018-07-25T00:49:00.291Z,100302.42
2018-07-25T00:51:28.366Z,100303.77
2018-07-25T00:53:56.440Z,100310.83
2018-07-25T00:56:24.531Z,100309.72
2018-07-25T00:58:52.592Z,100315.20
2018-07-25T01:01:20.687Z,100307.31
2018-07-25T01:03:48.748Z,100304.00
2018-07-25T01:06:16.856Z,100315.17
2018-07-25T01:08:44.915Z,100316.01
2018-07-25T01:11:13.005Z,100317.39
2018-07-25T01:13:41.066Z,100317.37
2018-07-25T01:16:09.141Z,100315.42
2018-07-25T01:18:37.235Z,100314.26
2018-07-25T01:21:05.317Z,100313.72
2018-07-25T01:23:33.375Z,100318.02
2018-07-25T01:26:01.478Z,100317.63
2018-07-25T01:28:29.562Z,100310.01
2018-07-25T01:30:57.645Z,100307.06
2018-07-25T01:33:25.738Z,100311.95
2018-07-25T01:35:53.830Z,100313.05
2018-07-25T01:38:21.903Z,100314.94
2018-07-25T01:40:50.004Z,100315.95
2018-07-25T01:43:18.075Z,100316.48
2018-07-25T01:45:46.173Z,100318.91
2018-07-25T01:48:14.262Z,100314.03
2018-07-25T01:50:42.337Z,100313.72
2018-07-25T01:53:10.400Z,100312.13
2018-07-25T01:55:38.566Z,100318.60
2018-07-25T01:58:06.707Z,100321.46
2018-07-25T02:00:34.775Z,100317.58
2018-07-25T02:03:02.836Z,100324.42
2018-07-25T02:05:30.920Z,100322.58
2018-07-25T02:07:58.992Z,100324.74
2018-07-25T02:10:27.059Z,100326.23
2018-07-25T02:12:55.268Z,100330.04
2018-07-25T02:15:23.572Z,100324.84
2018-07-25T02:17:51.718Z,100320.80
2018-07-25T02:20:19.830Z,100316.97
2018-07-25T02:22:47.904Z,100329.66
2018-07-25T02:25:15.977Z,100320.48
2018-07-25T02:27:44.042Z,100323.45
2018-07-25T02:30:12.107Z,100329.98
2018-07-25T02:32:40.194Z,100332.14
2018-07-25T02:35:08.267Z,100331.61
2018-07-25T02:37:36.376Z,100328.30
2018-07-25T02:40:04.532Z,100334.53
2018-07-25T02:42:32.619Z,100341.99
2018-07-25T02:45:00.669Z,100338.72
2018-07-25T02:47:28.731Z,100336.27
2018-07-25T02:49:56.811Z,100343.19
2018-07-25T02:52:24.887Z,100349.97
2018-07-25T02:54:52.945Z,100345.83
2018-07-25T02:57:21.024Z,100350.73
2018-07-25T02:59:49.088Z,100345.20
2018-07-25T03:02:17.165Z,100356.84
2018-07-25T03:04:45.257Z,100355.56
2018-07-25T03:07:13.356Z,100360.31
2018-07-25T03:09:41.499Z,100359.41
2018-07-25T03:12:09.609Z,100360.38
2018-07-25T03:14:37.675Z,100366.67
2018-07-25T03:17:05.753Z,100374.69
2018-07-25T03:19:33.821Z,100370.55
2018-07-25T03:22:01.913Z,100364.85
2018-07-25T03:24:29.984Z,100377.10
2018-07-25T03:26:58.077Z,100380.34
2018-07-25T03:29:26.155Z,100374.91
2018-07-25T03:31:54.272Z,100373.07
2018-07-25T03:34:22.406Z,100375.86
2018-07-25T03:36:50.514Z,100375.18
2018-07-25T03:39:18.594Z,100373.38
2018-07-25T03:41:46.731Z,100384.00
2018-07-25T03:44:14.813Z,100381.65
2018-07-25T03:46:42.894Z,100379.45
2018-07-25T03:49:10.962Z,100385.46
2018-07-25T03:51:39.063Z,100380.13
2018-07-25T03:54:07.136Z,100386.81
2018-07-25T03:56:35.221Z,100386.81
2018-07-25T03:59:03.362Z,100394.39
2018-07-25T04:01:31.468Z,100395.16
2018-07-25T04:03:59.556Z,100393.03
2018-07-25T04:06:27.643Z,100396.30
2018-07-25T04:08:55.936Z,100385.11
2018-07-25T04:11:24.041Z,100394.74
2018-07-25T04:13:52.104Z,100402.52
2018-07-25T04:16:20.184Z,100398.55
2018-07-25T04:18:48.281Z,100396.87
2018-07-25T04:21:16.400Z,100397.19
2018-07-25T04:23:44.471Z,100401.38
2018-07-25T04:26:12.556Z,100406.85
2018-07-25T04:28:40.634Z,100404.49
2018-07-25T04:31:08.727Z,100404.23
2018-07-25T04:33:36.851Z,100404.44
2018-07-25T04:36:04.933Z,100415.20
2018-07-25T04:38:33.026Z,100405.70
2018-07-25T04:41:01.128Z,100410.44
2018-07-25T04:43:35.775Z,100400.11
2018-07-25T04:46:03.860Z,100410.22
2018-07-25T04:48:31.936Z,100413.23
2018-07-25T04:51:00.040Z,100420.63
2018-07-25T04:53:28.157Z,100415.77
2018-07-25T04:55:56.233Z,100420.18
2018-07-25T04:58:24.308Z,100425.70
2018-07-25T05:00:52.375Z,100420.08
2018-07-25T05:03:20.492Z,100425.59
2018-07-25T05:05:48.632Z,100426.56
2018-07-25T05:08:16.727Z,100421.93
2018-07-25T05:10:44.815Z,100421.48
2018-07-25T05:13:12.891Z,100435.40
2018-07-25T05:15:40.964Z,100434.61
2018-07-25T05:18:09.098Z,100428.46
2018-07-25T05:20:37.187Z,100432.04
2018-07-25T05:23:05.348Z,100432.84
2018-07-25T05:25:33.428Z,100431.06
2018-07-25T05:28:01.535Z,100432.29
2018-07-25T05:30:29.745Z,100438.66
2018-07-25T05:32:57.879Z,100448.48
2018-07-25T05:35:25.955Z,100441.00
2018-07-25T05:37:54.044Z,100441.66
2018-07-25T05:40:22.111Z,100446.11
2018-07-25T05:42:50.210Z,100451.13
2018-07-25T05:45:18.295Z,100450.65
2018-07-25T05:47:46.407Z,100455.55
2018-07-25T05:50:14.473Z,100450.03
2018-07-25T05:52:42.539Z,100450.81
2018-07-25T05:55:10.607Z,100457.37
2018-07-25T05:57:38.760Z,100463.92
2018-07-25T06:00:06.930Z,100465.69
2018-07-25T06:02:35.048Z,100467.36
2018-07-25T06:05:03.150Z,100472.42
2018-07-25T06:07:31.247Z,100475.62
2018-07-25T06:09:59.319Z,100475.44
2018-07-25T06:12:27.406Z,100472.77
2018-07-25T06:14:55.472Z,100477.47
2018-07-25T06:17:23.568Z,100481.02
2018-07-25T06:19:51.700Z,100478.58
2018-07-25T06:22:19.916Z,100470.30
2018-07-25T06:24:48.019Z,100475.52
2018-07-25T06:27:16.118Z,100474.20
2018-07-25T06:29:44.183Z,100473.16
2018-07-25T06:32:12.369Z,100466.68
2018-07-25T06:34:40.503Z,100466.70
2018-07-25T06:37:08.570Z,100467.31
2018-07-25T06:39:36.776Z,100463.28
2018-07-25T06:42:04.926Z,100471.22
2018-07-25T06:44:33.053Z,100475.02
2018-07-25T06:47:01.288Z,100475.31
2018-07-25T06:49:29.375Z,100481.04
2018-07-25T06:51:57.481Z,100481.28
2018-07-25T06:54:25.575Z,100485.95
2018-07-25T06:56:53.696Z,100486.83
2018-07-25T06:59:21.814Z,100487.38
2018-07-25T07:01:50.126Z,100482.24
2018-07-25T07:04:18.266Z,100489.94
2018-07-25T07:06:47.021Z,100500.30
2018-07-25T07:09:15.168Z,100500.30
2018-07-25T07:11:43.367Z,100498.69
2018-07-25T07:14:11.446Z,100495.94
2018-07-25T07:16:39.534Z,100499.77
2018-07-25T07:19:07.653Z,100496.48
2018-07-25T07:21:36.932Z,100500.06
2018-07-25T07:24:05.144Z,100504.41
2018-07-25T07:26:33.178Z,100499.48
2018-07-25T07:29:02.549Z,100497.30
2018-07-25T07:31:30.736Z,100496.73
2018-07-25T07:33:58.803Z,100500.48
2018-07-25T07:36:26.887Z,100497.70
2018-07-25T07:38:55.022Z,100492.19
2018-07-25T07:41:23.117Z,100493.78
2018-07-25T07:43:51.233Z,100489.64
2018-07-25T07:46:19.346Z,100490.99
2018-07-25T07:48:47.568Z,100492.59
2018-07-25T07:51:15.687Z,100484.02
2018-07-25T07:53:43.775Z,100488.78
2018-07-25T07:56:11.844Z,100488.28
2018-07-25T07:58:39.919Z,100483.65
2018-07-25T08:01:08.001Z,100487.02
2018-07-25T08:03:36.203Z,100484.34
2018-07-25T08:06:04.399Z,100483.69
2018-07-25T08:08:32.503Z,100490.23
2018-07-25T08:11:00.592Z,100485.80
2018-07-25T08:13:28.680Z,100488.20
2018-07-25T08:15:58.029Z,100480.86
2018-07-25T08:18:26.105Z,100480.69
2018-07-25T08:20:54.223Z,100480.44
2018-07-25T08:23:22.336Z,100482.83
2018-07-25T08:25:50.553Z,100479.84
2018-07-25T08:28:18.658Z,100480.38
2018-07-25T08:30:46.788Z,100483.09
2018-07-25T08:33:15.011Z,100481.72
2018-07-25T08:35:43.134Z,100472.38
2018-07-25T08:38:11.267Z,100473.61
2018-07-25T08:40:39.341Z,100472.17
2018-07-25T08:43:07.418Z,100477.13
2018-07-25T08:45:35.586Z,100476.12
2018-07-25T08:48:03.683Z,100475.77
2018-07-25T08:50:31.764Z,100467.37
2018-07-25T08:52:59.959Z,100464.48
2018-07-25T08:55:28.026Z,100467.61
2018-07-25T08:57:56.091Z,100461.73
2018-07-25T09:00:24.194Z,100464.25
2018-07-25T09:02:52.256Z,100471.19
2018-07-25T09:05:20.316Z,100468.38
2018-07-25T09:07:48.409Z,100470.30
2018-07-25T09:10:16.536Z,100462.11
2018-07-25T09:12:44.746Z,100466.25
2018-07-25T09:15:13.483Z,100463.41
2018-07-25T09:17:41.587Z,100467.92
2018-07-25T09:20:09.966Z,100464.22
2018-07-25T09:22:38.075Z,100464.34
2018-07-25T09:25:06.449Z,100467.36
2018-07-25T09:27:34.506Z,100468.19
2018-07-25T09:30:02.589Z,100473.73
2018-07-25T09:32:30.642Z,100473.11
2018-07-25T09:34:58.714Z,100470.61
2018-07-25T09:37:26.920Z,100466.20
2018-07-25T09:39:55.036Z,100466.24
2018-07-25T09:42:23.108Z,100466.80
2018-07-25T09:44:52.045Z,100468.52
2018-07-25T09:47:20.122Z,100465.59
2018-07-25T09:49:48.204Z,100466.41
2018-07-25T09:52:16.270Z,100453.65
2018-07-25T09:54:44.522Z,100458.38
2018-07-25T09:57:12.583Z,100446.69
2018-07-25T09:59:40.667Z,100446.64
2018-07-25T10:02:08.731Z,100451.25
2018-07-25T10:04:36.790Z,100440.92
2018-07-25T10:07:04.877Z,100443.95
2018-07-25T10:09:32.982Z,100442.38
2018-07-25T10:12:01.561Z,100437.75
2018-07-25T10:14:29.638Z,100430.72
2018-07-25T10:16:57.707Z,100428.05
2018-07-25T10:19:25.786Z,100428.48
2018-07-25T10:21:54.056Z,100419.30
2018-07-25T10:24:22.212Z,100415.28
2018-07-25T10:26:50.335Z,100414.95
2018-07-25T10:29:18.378Z,100418.39
2018-07-25T10:31:46.446Z,100417.44
2018-07-25T10:34:14.698Z,100414.38
2018-07-25T10:36:42.963Z,100416.42
2018-07-25T10:39:11.217Z,100420.41
2018-07-25T10:41:39.255Z,100412.52
2018-07-25T10:44:07.362Z,100412.81
2018-07-25T10:46:35.534Z,100407.91
2018-07-25T10:49:04.010Z,100402.27
2018-07-25T10:51:32.106Z,100402.05
2018-07-25T10:54:00.344Z,100396.00
2018-07-25T10:56:28.427Z,100394.91
2018-07-25T10:58:56.655Z,100393.18
2018-07-25T11:01:25.574Z,100391.42
2018-07-25T11:03:53.688Z,100390.69
2018-07-25T11:06:21.771Z,100382.95
2018-07-25T11:08:49.868Z,100382.16
2018-07-25T11:11:18.296Z,100384.48
2018-07-25T11:13:46.581Z,100384.55
2018-07-25T11:16:14.731Z,100382.03
2018-07-25T11:18:43.069Z,100381.22
2018-07-25T11:21:11.327Z,100375.94
2018-07-25T11:23:39.467Z,100381.23
2018-07-25T11:26:07.540Z,100377.79
2018-07-25T11:28:35.751Z,100370.85
2018-07-25T11:31:04.268Z,100369.33
2018-07-25T11:33:32.325Z,100376.42
2018-07-25T11:36:00.403Z,100367.75
2018-07-25T11:38:28.467Z,100364.50
2018-07-25T11:40:56.583Z,100363.23
2018-07-25T11:43:24.656Z,100361.69
2018-07-25T11:45:52.728Z,100358.13
2018-07-25T11:48:20.789Z,100360.61
2018-07-25T11:50:48.876Z,100355.77
2018-07-25T11:53:16.956Z,100350.56
2018-07-25T11:55:45.127Z,100347.91
2018-07-25T11:58:13.142Z,100355.61
2018-07-25T12:00:41.217Z,100347.01
2018-07-25T12:03:09.298Z,100352.20
2018-07-25T12:05:37.377Z,100355.80
2018-07-25T12:08:05.726Z,100352.68
2018-07-25T12:10:33.859Z,100351.31
2018-07-25T12:13:01.992Z,100336.66
2018-07-25T12:15:30.075Z,100338.52
2018-07-25T12:17:58.191Z,100330.16
2018-07-25T12:20:26.295Z,100333.17
2018-07-25T12:22:54.379Z,100335.56
2018-07-25T12:25:22.706Z,100335.02
2018-07-25T12:27:50.840Z,100333.20
2018-07-25T12:30:18.991Z,100328.22
2018-07-25T12:32:47.359Z,100326.72
2018-07-25T12:35:15.662Z,100322.52
2018-07-25T12:37:43.774Z,100315.56
2018-07-25T12:40:11.913Z,100323.71
2018-07-25T12:42:40.016Z,100317.91
2018-07-25T12:45:08.303Z,100321.95
2018-07-25T12:47:36.373Z,100321.05
2018-07-25T12:50:04.579Z,100321.45
2018-07-25T12:52:32.657Z,100326.36
2018-07-25T12:55:00.760Z,100315.45
2018-07-25T12:57:28.894Z,100307.20
2018-07-25T12:59:57.022Z,100303.92
2018-07-25T13:02:25.230Z,100311.97
2018-07-25T13:04:53.335Z,100303.39
2018-07-25T13:07:21.680Z,100304.10
2018-07-25T13:09:49.751Z,100298.66
2018-07-25T13:12:17.981Z,100299.42
2018-07-25T13:14:46.113Z,100302.75
2018-07-25T13:17:14.206Z,100300.23
2018-07-25T13:19:42.287Z,100298.58
2018-07-25T13:22:10.448Z,100293.70
2018-07-25T13:24:38.528Z,100288.45
2018-07-25T13:27:06.660Z,100291.94
2018-07-25T13:29:34.765Z,100294.67
2018-07-25T13:32:02.856Z,100293.48
2018-07-25T13:34:30.928Z,100287.59
2018-07-25T13:36:59.055Z,100285.84
2018-07-25T13:39:27.158Z,100288.49
2018-07-25T13:41:55.314Z,100278.81
2018-07-25T13:44:23.976Z,100287.48
2018-07-25T13:46:52.200Z,100279.41
2018-07-25T13:49:20.295Z,100278.76
2018-07-25T13:51:48.423Z,100274.84
2018-07-25T13:54:16.641Z,100276.27
2018-07-25T13:56:45.842Z,100273.34
2018-07-25T13:59:13.937Z,100272.33
2018-07-25T14:01:42.661Z,100263.67
2018-07-25T14:04:11.217Z,100258.59
2018-07-25T14:06:40.078Z,100258.44
2018-07-25T14:09:09.649Z,100261.39
2018-07-25T14:11:38.484Z,100253.30
2018-07-25T14:14:06.660Z,100254.53
2018-07-25T14:16:34.842Z,100256.80
2018-07-25T14:19:02.968Z,100247.50
2018-07-25T14:21:31.395Z,100245.67
2018-07-25T14:23:59.797Z,100248.23
2018-07-25T14:26:27.809Z,100240.68
2018-07-25T14:28:56.063Z,100229.97
2018-07-25T14:31:24.708Z,100236.27
2018-07-25T14:33:52.826Z,100241.84
2018-07-25T14:36:20.964Z,100241.08
2018-07-25T14:38:49.460Z,100243.90
2018-07-25T14:41:17.590Z,100234.00
2018-07-25T14:43:45.976Z,100233.42
2018-07-25T14:46:14.237Z,100237.89
2018-07-25T14:48:43.558Z,100230.64
2018-07-25T14:51:12.763Z,100221.73
2018-07-25T14:53:41.228Z,100235.34
2018-07-25T14:56:09.814Z,100233.37
2018-07-25T14:58:37.921Z,100235.49
2018-07-25T15:01:06.401Z,100246.97
2018-07-25T15:03:34.656Z,100249.59
2018-07-25T15:06:02.855Z,100238.07
2018-07-25T15:08:31.362Z,100248.77
2018-07-25T15:10:59.591Z,100246.73
2018-07-25T15:13:27.993Z,100243.70
2018-07-25T15:15:56.191Z,100233.78
2018-07-25T15:18:24.790Z,100234.64
2018-07-25T15:20:53.091Z,100231.50
2018-07-25T15:23:32.746Z,100226.80
2018-07-25T15:26:00.886Z,100223.84
2018-07-25T15:28:29.220Z,100232.39
2018-07-25T15:30:57.618Z,100224.55
2018-07-25T15:33:26.619Z,100227.20
2018-07-25T15:35:54.788Z,100224.83
2018-07-25T15:38:23.024Z,100223.77
2018-07-25T15:40:51.154Z,100222.63
2018-07-25T15:43:19.359Z,100218.95
2018-07-25T15:45:47.640Z,100216.25
2018-07-25T15:48:15.999Z,100216.98
2018-07-25T15:50:44.296Z,100214.91
2018-07-25T15:53:13.482Z,100215.78
2018-07-25T15:55:41.698Z,100218.10
2018-07-25T15:58:10.187Z,100214.38
2018-07-25T16:00:38.324Z,100211.33
2018-07-25T16:03:06.426Z,100214.75
2018-07-25T16:05:34.674Z,100216.97
2018-07-25T16:08:02.878Z,100213.70
2018-07-25T16:10:30.996Z,100214.32
2018-07-25T16:12:59.199Z,100215.58
2018-07-25T16:15:27.485Z,100204.30
2018-07-25T16:17:55.644Z,100204.80
2018-07-25T16:20:23.707Z,100204.93
2018-07-25T16:22:51.800Z,100207.21
2018-07-25T16:25:19.863Z,100198.56
2018-07-25T16:27:47.946Z,100195.64
2018-07-25T16:30:18.355Z,100194.09
2018-07-25T16:32:46.450Z,100195.48
2018-07-25T16:35:14.584Z,100192.30
2018-07-25T16:37:42.696Z,100197.03
2018-07-25T16:40:10.987Z,100191.20
2018-07-25T16:42:39.119Z,100193.95
2018-07-25T16:45:07.295Z,100193.79
2018-07-25T16:47:35.415Z,100195.59
2018-07-25T16:50:03.526Z,100201.44
2018-07-25T16:52:31.651Z,100196.80
2018-07-25T16:54:59.730Z,100198.20
2018-07-25T16:57:28.145Z,100200.41
2018-07-25T16:59:56.224Z,100198.81
2018-07-25T17:02:24.400Z,100203.39
2018-07-25T17:04:52.523Z,100207.13
2018-07-25T17:07:20.646Z,100201.80
2018-07-25T17:09:48.749Z,100208.14
2018-07-25T17:12:16.847Z,100217.84
2018-07-25T17:14:45.023Z,100232.18
2018-07-25T17:17:13.102Z,100260.84
2018-07-25T17:19:41.303Z,100278.19
2018-07-25T17:22:09.549Z,100265.11
2018-07-25T17:24:37.631Z,100297.35
2018-07-25T17:27:05.752Z,100332.42
2018-07-25T17:29:33.875Z,100336.81
2018-07-25T17:32:01.998Z,100343.67
2018-07-25T17:34:30.138Z,100335.95
2018-07-25T17:36:58.295Z,100351.46
2018-07-25T17:39:27.118Z,100361.06
2018-07-25T17:41:55.175Z,100366.92
2018-07-25T17:44:23.289Z,100382.53
2018-07-25T17:46:51.520Z,100388.33
2018-07-25T17:49:19.627Z,100370.08
2018-07-25T17:51:47.765Z,100359.51
2018-07-25T17:54:15.886Z,100342.69
2018-07-25T17:56:44.110Z,100318.80
2018-07-25T17:59:12.256Z,100319.01
2018-07-25T18:01:40.483Z,100316.91
2018-07-25T18:04:08.623Z,100315.95
2018-07-25T18:06:36.791Z,100318.77
2018-07-25T18:09:07.321Z,100309.82
2018-07-25T18:11:35.724Z,100325.67
2018-07-25T18:14:09.187Z,100324.44
2018-07-25T18:16:37.378Z,100328.61
2018-07-25T18:19:05.516Z,100338.67
2018-07-25T18:21:33.740Z,100335.02
2018-07-25T18:24:01.867Z,100338.20
2018-07-25T18:26:30.070Z,100333.56
2018-07-25T18:28:58.294Z,100336.52
2018-07-25T18:31:26.435Z,100339.61
2018-07-25T18:33:54.619Z,100345.80
2018-07-25T18:36:22.765Z,100342.28
2018-07-25T18:38:50.914Z,100341.75
2018-07-25T18:41:19.045Z,100339.38
2018-07-25T18:43:47.306Z,100342.05
2018-07-25T18:46:15.579Z,100342.27
2018-07-25T18:48:44.209Z,100343.89
2018-07-25T18:51:12.420Z,100343.06
2018-07-25T18:53:41.259Z,100350.52
2018-07-25T18:56:09.439Z,100343.92
2018-07-25T18:58:37.610Z,100341.98
2018-07-25T19:01:06.476Z,100343.41
2018-07-25T19:03:34.773Z,100341.32
2018-07-25T19:06:03.033Z,100333.24
2018-07-25T19:08:31.317Z,100343.34
2018-07-25T19:10:59.463Z,100355.91
2018-07-25T19:13:34.100Z,100357.19
2018-07-25T19:16:03.171Z,100360.45
2018-07-25T19:18:31.652Z,100367.03
2018-07-25T19:21:00.011Z,100364.05
2018-07-25T19:23:28.789Z,100364.84
2018-07-25T19:25:57.098Z,100366.20
2018-07-25T19:28:25.642Z,100364.84
2018-07-25T19:30:53.757Z,100364.59
2018-07-25T19:33:21.880Z,100368.98
2018-07-25T19:35:50.016Z,100372.83
2018-07-25T19:38:18.175Z,100379.65
2018-07-25T19:40:46.857Z,100386.44
2018-07-25T19:43:28.123Z,100395.20
2018-07-25T19:45:56.574Z,100395.74
2018-07-25T19:48:31.646Z,100399.30
2018-07-25T19:50:59.920Z,100397.61
2018-07-25T19:53:28.073Z,100389.61
2018-07-25T19:55:56.815Z,100389.13
2018-07-25T19:58:25.680Z,100389.75
2018-07-25T20:00:54.005Z,100386.48
2018-07-25T20:03:22.707Z,100390.03
2018-07-25T20:05:54.267Z,100393.05
2018-07-25T20:08:23.248Z,100402.03
2018-07-25T20:10:52.520Z,100405.80
2018-07-25T20:13:20.685Z,100396.57
2018-07-25T20:15:54.123Z,100402.61
2018-07-25T20:18:22.237Z,100408.63
2018-07-25T20:20:50.458Z,100412.44
2018-07-25T20:23:19.954Z,100411.91
2018-07-25T20:25:48.049Z,100411.33
2018-07-25T20:28:16.232Z,100419.27
2018-07-25T20:30:44.341Z,100414.34
2018-07-25T20:33:12.517Z,100412.72
2018-07-25T20:36:51.826Z,100411.35
2018-07-25T20:39:20.046Z,100409.45
2018-07-25T20:41:48.281Z,100404.27
2018-07-25T20:44:16.510Z,100404.81
2018-07-25T20:46:44.703Z,100406.45
2018-07-25T20:49:15.199Z,100398.87
2018-07-25T20:51:43.345Z,100393.70
2018-07-25T20:54:11.630Z,100386.98
2018-07-25T20:56:39.873Z,100394.23
2018-07-25T20:59:08.691Z,100397.80
2018-07-25T21:01:36.852Z,100402.58
2018-07-25T21:04:04.983Z,100406.55
2018-07-25T21:06:33.111Z,100403.80
2018-07-25T21:09:01.393Z,100407.29
2018-07-25T21:11:29.537Z,100405.67
2018-07-25T21:13:57.766Z,100401.78
2018-07-25T21:16:26.095Z,100402.06
2018-07-25T21:18:54.206Z,100406.12
2018-07-25T21:21:22.532Z,100408.59
2018-07-25T21:23:50.589Z,100403.80
2018-07-25T21:26:18.745Z,100409.03
2018-07-25T21:28:46.986Z,100404.61
2018-07-25T21:31:15.150Z,100408.11
2018-07-25T21:33:43.333Z,100404.15
2018-07-25T21:36:11.484Z,100409.97
2018-07-25T21:38:39.623Z,100414.36
2018-07-25T21:41:07.764Z,100414.02
2018-07-25T21:43:35.937Z,100411.72
2018-07-25T21:46:04.165Z,100415.69
2018-07-25T21:48:32.577Z,100422.17
2018-07-25T21:51:01.516Z,100421.20
2018-07-25T21:53:29.649Z,100416.02
2018-07-25T21:55:57.781Z,100422.77
2018-07-25T21:58:25.915Z,100426.70
2018-07-25T22:00:58.377Z,100426.25
2018-07-25T22:03:26.571Z,100415.61
2018-07-25T22:05:54.745Z,100414.98
2018-07-25T22:08:22.867Z,100412.44
2018-07-25T22:10:51.015Z,100417.58
2018-07-25T22:13:19.202Z,100418.95
2018-07-25T22:15:47.396Z,100421.19
2018-07-25T22:18:16.457Z,100418.12
2018-07-25T22:20:44.617Z,100413.47
2018-07-25T22:23:12.765Z,100430.10
2018-07-25T22:25:41.145Z,100424.80
2018-07-25T22:28:09.339Z,100425.66
2018-07-25T22:30:37.669Z,100427.31
2018-07-25T22:33:06.216Z,100428.70
2018-07-25T22:35:34.990Z,100431.47
2018-07-25T22:38:03.307Z,100434.62
2018-07-25T22:40:39.965Z,100427.52
2018-07-25T22:43:08.420Z,100432.27
2018-07-25T22:45:36.842Z,100438.16
2018-07-25T22:48:05.749Z,100432.44
2018-07-25T22:50:36.431Z,100428.33
2018-07-25T22:53:12.760Z,100432.04
2018-07-25T22:55:41.444Z,100427.70
2018-07-25T22:58:09.655Z,100426.00
2018-07-25T23:00:38.222Z,100423.58
2018-07-25T23:03:06.393Z,100421.51
2018-07-25T23:05:35.824Z,100423.37
2018-07-25T23:08:04.623Z,100424.88
2018-07-25T23:10:34.408Z,100429.28
2018-07-25T23:13:14.179Z,100432.91
2018-07-25T23:15:42.380Z,100432.16
2018-07-25T23:18:10.865Z,100437.66
2018-07-25T23:20:39.160Z,100428.89
2018-07-25T23:23:08.123Z,100417.94
2018-07-25T23:25:37.283Z,100418.80
2018-07-25T23:28:06.033Z,100414.45
2018-07-25T23:30:34.445Z,100424.02
2018-07-25T23:33:02.649Z,100420.69
2018-07-25T23:35:30.811Z,100416.56
2018-07-25T23:37:58.851Z,100414.13
2018-07-25T23:40:26.959Z,100421.48
2018-07-25T23:42:55.023Z,100411.41
2018-07-25T23:45:23.111Z,100418.84
2018-07-25T23:47:51.187Z,100419.61
2018-07-25T23:50:19.261Z,100424.02
2018-07-25T23:52:47.350Z,100422.97
2018-07-25T23:55:15.430Z,100420.46
2018-07-25T23:57:43.506Z,100420.98
